createdAt,value
2024-02-02T00:00:17.616Z,30.67
2024-02-02T00:03:06.143Z,26.50
2024-02-02T00:05:34.760Z,30.00
2024-02-02T00:08:02.971Z,31.50
2024-02-02T00:10:31.502Z,30.50
2024-02-02T00:12:59.968Z,29.25
2024-02-02T00:15:28.618Z,30.00
2024-02-02T00:17:57.390Z,28.00
2024-02-02T00:20:25.903Z,29.50
2024-02-02T00:22:56.621Z,27.25
2024-02-02T00:25:25.474Z,28.50
2024-02-02T00:27:54.133Z,27.67
2024-02-02T00:30:22.777Z,27.00
2024-02-02T00:32:51.256Z,29.75
2024-02-02T00:35:19.713Z,27.25
2024-02-02T00:37:48.294Z,23.75
2024-02-02T00:40:19.944Z,25.50
2024-02-02T00:42:49.502Z,25.50
2024-02-02T00:45:17.914Z,25.33
2024-02-02T00:47:46.673Z,26.75
2024-02-02T00:50:15.081Z,24.33
2024-02-02T00:52:44.137Z,25.50
2024-02-02T00:55:12.797Z,24.50
2024-02-02T00:57:41.110Z,24.50
2024-02-02T01:00:12.036Z,23.50
2024-02-02T01:02:40.852Z,24.25
2024-02-02T01:05:12.554Z,22.33
2024-02-02T01:07:41.380Z,24.75
2024-02-02T01:10:13.828Z,24.67
2024-02-02T01:12:42.137Z,23.00
2024-02-02T01:15:10.617Z,23.50
2024-02-02T01:17:39.000Z,24.00
2024-02-02T01:20:08.285Z,23.25
2024-02-02T01:22:36.371Z,23.67
2024-02-02T01:25:04.963Z,25.00
2024-02-02T01:27:34.833Z,24.00
2024-02-02T01:30:04.288Z,20.33
2024-02-02T01:32:32.425Z,25.25
2024-02-02T01:35:00.604Z,21.75
2024-02-02T01:37:29.061Z,21.25
2024-02-02T01:39:57.678Z,21.33
2024-02-02T01:42:26.107Z,21.25
2024-02-02T01:44:54.288Z,21.33
2024-02-02T01:47:22.628Z,23.00
2024-02-02T01:49:50.988Z,21.00
2024-02-02T01:52:19.465Z,19.25
2024-02-02T01:54:47.726Z,21.25
2024-02-02T01:57:16.190Z,20.25
2024-02-02T01:59:44.688Z,22.00
2024-02-02T02:02:13.791Z,20.25
2024-02-02T02:04:42.498Z,19.75
2024-02-02T02:07:10.963Z,23.00
2024-02-02T02:09:39.317Z,22.75
2024-02-02T02:12:08.055Z,21.00
2024-02-02T02:14:36.545Z,20.75
2024-02-02T02:17:05.126Z,21.00
2024-02-02T02:29:03.188Z,19.67
2024-02-02T02:31:31.435Z,21.25
2024-02-02T02:33:59.948Z,20.00
2024-02-02T02:36:28.587Z,18.00
2024-02-02T02:38:57.147Z,15.67
2024-02-02T02:41:26.121Z,19.25
2024-02-02T02:43:54.189Z,18.75
2024-02-02T02:46:22.406Z,20.00
2024-02-02T02:48:51.339Z,18.00
2024-02-02T02:51:19.932Z,19.75
2024-02-02T02:53:48.240Z,16.50
2024-02-02T02:56:16.640Z,18.25
2024-02-02T02:58:45.236Z,18.25
2024-02-02T03:01:13.747Z,19.25
2024-02-02T03:03:41.930Z,19.00
2024-02-02T03:06:10.452Z,18.33
2024-02-02T03:08:38.943Z,17.00
2024-02-02T03:11:07.129Z,16.50
2024-02-02T03:13:35.614Z,20.25
2024-02-02T03:16:04.421Z,18.33
2024-02-02T03:18:32.762Z,16.50
2024-02-02T03:21:01.203Z,19.25
2024-02-02T03:23:30.230Z,18.25
2024-02-02T03:25:58.388Z,16.67
2024-02-02T03:28:26.441Z,16.67
2024-02-02T03:30:54.787Z,16.67
2024-02-02T03:33:23.322Z,16.75
2024-02-02T03:35:51.743Z,16.50
2024-02-02T03:38:19.949Z,18.25
2024-02-02T03:40:48.220Z,14.67
2024-02-02T03:43:16.432Z,15.67
2024-02-02T03:45:44.759Z,15.33
2024-02-02T03:48:13.349Z,15.33
2024-02-02T03:50:41.802Z,16.50
2024-02-02T03:53:10.588Z,14.25
2024-02-02T03:55:39.048Z,15.00
2024-02-02T03:58:07.111Z,14.25
2024-02-02T04:00:35.627Z,14.00
2024-02-02T04:03:04.784Z,16.67
2024-02-02T04:05:33.244Z,14.00
2024-02-02T04:08:01.752Z,15.00
2024-02-02T04:10:30.249Z,13.25
2024-02-02T04:12:59.161Z,13.33
2024-02-02T04:15:28.623Z,13.25
2024-02-02T04:17:57.488Z,14.50
2024-02-02T04:20:25.978Z,14.00
2024-02-02T04:22:54.334Z,13.25
2024-02-02T04:25:23.057Z,12.75
2024-02-02T04:27:51.536Z,13.33
2024-02-02T04:30:20.276Z,13.00
2024-02-02T04:32:48.803Z,13.00
2024-02-02T04:35:17.143Z,12.33
2024-02-02T04:37:45.477Z,12.33
2024-02-02T04:40:13.731Z,13.00
2024-02-02T04:42:42.207Z,14.25
2024-02-02T04:45:10.761Z,11.33
2024-02-02T04:47:39.228Z,13.25
2024-02-02T04:50:08.064Z,11.50
2024-02-02T04:52:36.392Z,13.33
2024-02-02T04:55:05.959Z,11.00
2024-02-02T04:57:34.227Z,10.33
2024-02-02T05:00:02.723Z,11.25
2024-02-02T05:02:32.947Z,10.50
2024-02-02T05:05:01.318Z,12.33
2024-02-02T05:07:29.693Z,10.75
2024-02-02T05:09:58.151Z,13.00
2024-02-02T05:12:26.193Z,10.67
2024-02-02T05:14:55.193Z,9.50
2024-02-02T05:17:23.452Z,11.25
2024-02-02T05:19:51.968Z,7.00
2024-02-02T05:22:20.318Z,9.00
2024-02-02T05:24:49.583Z,11.00
2024-02-02T05:27:17.906Z,12.67
2024-02-02T05:29:46.354Z,12.00
2024-02-02T05:32:14.496Z,11.33
2024-02-02T05:34:43.408Z,9.33
2024-02-02T05:37:11.947Z,9.33
2024-02-02T05:39:40.346Z,7.00
2024-02-02T05:42:08.981Z,8.00
2024-02-02T05:44:38.239Z,7.75
2024-02-02T05:47:06.566Z,10.33
2024-02-02T05:49:35.015Z,9.00
2024-02-02T05:52:03.436Z,10.33
2024-02-02T05:54:32.938Z,9.00
2024-02-02T05:57:01.360Z,9.33
2024-02-02T05:59:29.587Z,10.00
2024-02-02T06:01:57.904Z,7.75
2024-02-02T06:04:26.420Z,8.00
2024-02-02T06:06:54.892Z,8.67
2024-02-02T06:09:23.665Z,9.33
2024-02-02T06:11:52.048Z,10.00
2024-02-02T06:14:20.176Z,11.00
2024-02-02T06:16:49.577Z,9.33
2024-02-02T06:19:18.254Z,10.33
2024-02-02T06:21:46.629Z,13.50
2024-02-02T06:24:15.344Z,13.33
2024-02-02T06:26:44.571Z,14.50
2024-02-02T06:29:12.929Z,10.25
2024-02-02T06:31:41.301Z,12.33
2024-02-02T06:34:12.617Z,16.00
2024-02-02T06:36:42.315Z,11.00
2024-02-02T06:39:10.791Z,13.00
2024-02-02T06:41:39.177Z,15.00
2024-02-02T06:44:07.460Z,15.25
2024-02-02T06:46:35.877Z,15.33
2024-02-02T06:49:04.423Z,14.00
2024-02-02T06:51:33.095Z,13.50
2024-02-02T06:54:01.400Z,14.00
2024-02-02T06:56:46.416Z,14.25
2024-02-02T06:59:14.857Z,13.50
2024-02-02T07:01:42.948Z,11.00
2024-02-02T07:04:15.163Z,13.67
2024-02-02T07:06:43.694Z,13.33
2024-02-02T07:09:24.307Z,13.75
2024-02-02T07:11:57.816Z,12.50
2024-02-02T07:14:34.804Z,13.00
2024-02-02T07:17:03.749Z,11.00
2024-02-02T07:19:38.955Z,13.25
2024-02-02T07:22:39.884Z,14.33
2024-02-02T07:25:17.200Z,13.00
2024-02-02T07:27:48.928Z,13.25
2024-02-02T07:30:32.605Z,12.00
2024-02-02T07:33:01.908Z,12.25
2024-02-02T07:35:34.612Z,14.75
2024-02-02T07:38:06.537Z,12.33
2024-02-02T07:40:49.936Z,12.33
2024-02-02T07:43:18.396Z,15.00
2024-02-02T07:45:46.658Z,13.50
2024-02-02T07:48:14.891Z,10.00
2024-02-02T07:50:43.221Z,11.67
2024-02-02T07:53:11.704Z,12.33
2024-02-02T07:55:40.712Z,12.25
2024-02-02T07:58:09.281Z,10.00
2024-02-02T08:00:37.819Z,13.33
2024-02-02T08:03:10.554Z,12.00
2024-02-02T08:05:40.773Z,13.25
2024-02-02T08:08:09.539Z,11.67
2024-02-02T08:10:43.261Z,13.50
2024-02-02T08:13:13.844Z,12.33
2024-02-02T08:15:42.523Z,13.50
2024-02-02T08:18:12.180Z,10.33
2024-02-02T08:20:40.766Z,12.00
2024-02-02T08:23:09.057Z,12.33
2024-02-02T08:25:37.233Z,12.00
2024-02-02T08:28:06.280Z,11.33
2024-02-02T08:30:34.476Z,12.25
2024-02-02T08:33:03.053Z,12.00
2024-02-02T08:35:31.462Z,13.33
2024-02-02T08:38:01.381Z,13.00
2024-02-02T08:40:41.040Z,13.00
2024-02-02T08:43:14.103Z,12.67
2024-02-02T08:45:42.288Z,11.50
2024-02-02T08:48:21.044Z,10.00
2024-02-02T08:50:49.663Z,13.50
2024-02-02T08:53:18.261Z,12.67
2024-02-02T08:55:50.822Z,11.33
2024-02-02T08:58:28.570Z,13.67
2024-02-02T09:00:56.798Z,12.50
2024-02-02T09:03:48.494Z,14.00
2024-02-02T09:06:44.576Z,14.33
2024-02-02T09:09:13.598Z,19.00
2024-02-02T09:11:42.332Z,18.50
2024-02-02T09:14:15.684Z,20.00
2024-02-02T09:16:45.777Z,20.50
2024-02-02T09:19:28.046Z,18.00
2024-02-02T09:21:59.006Z,21.00
2024-02-02T09:24:43.283Z,19.67
2024-02-02T09:27:33.401Z,18.50
2024-02-02T09:30:02.308Z,21.00
2024-02-02T09:32:30.916Z,20.00
2024-02-02T09:35:01.255Z,20.00
2024-02-02T09:37:51.193Z,21.33
2024-02-02T09:40:40.549Z,20.75
2024-02-02T09:43:14.091Z,19.33
2024-02-02T09:45:55.042Z,19.67
2024-02-02T09:48:31.736Z,20.67
2024-02-02T09:51:18.747Z,20.33
2024-02-02T09:53:52.814Z,19.25
2024-02-02T09:56:27.947Z,18.75
2024-02-02T09:59:23.487Z,19.25
2024-02-02T10:02:04.033Z,17.25
2024-02-02T10:05:01.322Z,15.00
2024-02-02T10:07:47.974Z,15.00
2024-02-02T10:10:22.027Z,18.00
2024-02-02T10:13:17.620Z,19.00
2024-02-02T10:16:08.843Z,19.00
2024-02-02T10:18:50.632Z,19.25
2024-02-02T10:21:29.611Z,18.75
2024-02-02T10:24:18.828Z,20.50
2024-02-02T10:27:25.932Z,19.67
2024-02-02T10:30:29.041Z,21.00
2024-02-02T10:33:21.629Z,22.00
2024-02-02T10:35:56.394Z,19.00
2024-02-02T10:38:59.685Z,21.00
2024-02-02T10:41:46.491Z,18.00
2024-02-02T10:44:50.727Z,20.00
2024-02-02T10:47:46.101Z,20.00
2024-02-02T10:50:50.636Z,19.00
2024-02-02T10:53:24.969Z,20.00
2024-02-02T10:56:02.181Z,21.00
2024-02-02T10:58:48.762Z,21.67
2024-02-02T11:01:33.190Z,21.00
2024-02-02T11:04:23.198Z,21.00
2024-02-02T11:07:07.472Z,20.33
2024-02-02T11:09:46.858Z,21.00
2024-02-02T11:12:24.729Z,19.00
2024-02-02T11:15:37.567Z,19.50
2024-02-02T11:18:09.542Z,21.50
2024-02-02T11:20:52.961Z,21.75
2024-02-02T11:23:30.270Z,20.00
2024-02-02T11:26:01.203Z,21.50
2024-02-02T11:28:32.182Z,20.50
2024-02-02T11:31:03.467Z,18.25
2024-02-02T11:33:47.725Z,19.00
2024-02-02T11:40:11.926Z,22.25
2024-02-02T11:42:40.850Z,22.00
2024-02-02T11:45:13.511Z,20.75
2024-02-02T11:47:54.096Z,21.33
2024-02-02T11:50:22.739Z,24.67
2024-02-02T11:52:59.221Z,22.00
2024-02-02T11:55:33.173Z,22.25
2024-02-02T11:58:04.585Z,22.00
2024-02-02T12:00:35.543Z,19.00
2024-02-02T12:03:13.159Z,22.50
2024-02-02T12:06:15.084Z,22.00
2024-02-02T12:08:58.456Z,22.00
2024-02-02T12:11:36.725Z,22.33
2024-02-02T12:14:29.423Z,18.00
2024-02-02T12:16:58.582Z,19.67
2024-02-02T12:19:28.131Z,23.50
2024-02-02T12:21:56.640Z,19.33
2024-02-02T12:24:25.180Z,19.00
2024-02-02T12:26:53.598Z,17.00
2024-02-02T12:29:22.712Z,18.00
2024-02-02T12:31:51.018Z,18.00
2024-02-02T12:34:19.259Z,19.00
2024-02-02T12:36:47.802Z,20.00
2024-02-02T12:39:16.346Z,17.00
2024-02-02T12:41:44.806Z,17.50
2024-02-02T12:44:12.896Z,17.00
2024-02-02T12:46:48.704Z,18.33
2024-02-02T12:49:17.234Z,18.75
2024-02-02T12:51:46.040Z,19.00
2024-02-02T12:54:14.666Z,20.25
2024-02-02T12:56:43.073Z,17.00
2024-02-02T12:59:19.843Z,18.67
2024-02-02T13:01:51.094Z,19.50
2024-02-02T13:04:19.537Z,18.67
2024-02-02T13:06:48.084Z,19.00
2024-02-02T13:09:33.350Z,21.00
2024-02-02T13:12:02.138Z,20.50
2024-02-02T13:14:32.761Z,20.00
2024-02-02T13:17:12.493Z,31.50
2024-02-02T13:19:47.225Z,29.00
2024-02-02T13:22:22.733Z,33.00
2024-02-02T13:24:55.005Z,33.25
2024-02-02T13:27:26.838Z,36.00
2024-02-02T13:30:03.832Z,34.00
2024-02-02T13:32:35.008Z,36.50
2024-02-02T13:35:09.856Z,36.00
2024-02-02T13:37:44.595Z,36.00
2024-02-02T13:40:14.704Z,37.00
2024-02-02T13:42:43.589Z,34.50
2024-02-02T13:45:16.641Z,33.50
2024-02-02T13:47:57.894Z,34.50
2024-02-02T13:50:41.818Z,33.50
2024-02-02T13:53:10.586Z,33.00
2024-02-02T13:55:39.340Z,33.67
2024-02-02T13:58:08.009Z,34.00
2024-02-02T14:00:36.514Z,34.25
2024-02-02T14:03:12.733Z,32.67
2024-02-02T14:05:42.799Z,30.50
2024-02-02T14:08:11.038Z,33.00
2024-02-02T14:10:46.610Z,31.50
2024-02-02T14:13:20.373Z,33.25
2024-02-02T14:15:50.402Z,31.50
2024-02-02T14:18:22.214Z,31.50
2024-02-02T14:20:50.922Z,32.50
2024-02-02T14:23:19.073Z,32.67
2024-02-02T14:25:47.426Z,31.50
2024-02-02T14:28:19.927Z,31.67
2024-02-02T14:30:48.786Z,30.50
2024-02-02T14:33:24.927Z,30.00
2024-02-02T14:35:55.321Z,31.67
2024-02-02T14:38:23.865Z,30.25
2024-02-02T14:50:21.988Z,26.75
2024-02-02T14:52:50.144Z,30.50
2024-02-02T14:55:18.171Z,24.00
2024-02-02T14:57:47.402Z,29.50
2024-02-02T15:00:31.134Z,30.25
2024-02-02T15:03:00.249Z,31.33
2024-02-02T15:05:29.059Z,30.00
2024-02-02T15:07:58.416Z,26.50
2024-02-02T15:10:26.799Z,30.50
2024-02-02T15:12:55.125Z,25.25
2024-02-02T15:15:23.931Z,27.00
2024-02-02T15:17:52.377Z,29.67
2024-02-02T15:20:20.796Z,26.00
2024-02-02T15:22:49.192Z,27.00
2024-02-02T15:25:17.564Z,28.50
2024-02-02T15:27:45.973Z,26.25
2024-02-02T15:30:14.864Z,27.75
2024-02-02T15:32:45.299Z,22.25
2024-02-02T15:35:16.952Z,31.75
2024-02-02T15:37:45.270Z,26.00
2024-02-02T15:40:15.261Z,27.50
2024-02-02T15:42:43.663Z,25.25
2024-02-02T15:47:40.418Z,26.75
2024-02-02T15:50:10.856Z,28.00
2024-02-02T15:52:39.993Z,26.00
2024-02-02T15:55:09.063Z,27.50
2024-02-02T15:57:37.316Z,26.67
2024-02-02T16:00:11.264Z,24.50
2024-02-02T16:02:40.062Z,24.00
2024-02-02T16:05:08.741Z,27.75
2024-02-02T16:07:38.469Z,26.25
2024-02-02T16:10:08.619Z,27.00
2024-02-02T16:12:39.736Z,22.75
2024-02-02T16:15:12.310Z,25.00
2024-02-02T16:17:41.276Z,25.75
2024-02-02T16:20:12.916Z,24.75
2024-02-02T16:22:42.772Z,26.00
2024-02-02T16:25:13.667Z,24.33
2024-02-02T16:27:42.111Z,24.67
2024-02-02T16:30:12.217Z,23.25
2024-02-02T16:32:40.734Z,23.33
2024-02-02T16:35:09.731Z,22.25
2024-02-02T16:37:39.889Z,22.00
2024-02-02T16:40:09.704Z,25.67
2024-02-02T16:42:40.275Z,24.75
2024-02-02T16:45:09.409Z,24.50
2024-02-02T16:47:37.534Z,24.25
2024-02-02T16:50:06.831Z,22.00
2024-02-02T16:52:35.169Z,24.75
2024-02-02T16:55:05.112Z,23.00
2024-02-02T16:57:33.245Z,24.25
2024-02-02T17:00:04.167Z,22.25
2024-02-02T17:02:32.439Z,25.00
2024-02-02T17:05:00.848Z,23.00
2024-02-02T17:07:30.054Z,23.25
2024-02-02T17:09:58.533Z,24.00
2024-02-02T17:12:27.150Z,23.75
2024-02-02T17:14:55.573Z,23.75
2024-02-02T17:17:23.928Z,22.00
2024-02-02T17:19:52.310Z,21.50
2024-02-02T17:22:20.481Z,23.00
2024-02-02T17:24:48.671Z,22.00
2024-02-02T17:27:17.113Z,23.00
2024-02-02T17:29:45.293Z,24.00
2024-02-02T17:32:17.238Z,25.33
2024-02-02T17:34:49.416Z,24.75
2024-02-02T17:37:18.125Z,25.00
2024-02-02T17:39:46.778Z,23.75
2024-02-02T17:42:15.306Z,24.33
2024-02-02T17:44:44.837Z,22.00
2024-02-02T17:47:13.364Z,24.00
2024-02-02T17:49:45.967Z,24.00
2024-02-02T17:52:17.792Z,23.00
2024-02-02T17:54:46.399Z,23.50
2024-02-02T17:57:15.690Z,24.25
2024-02-02T17:59:44.152Z,23.25
2024-02-02T18:02:12.658Z,22.25
2024-02-02T18:04:40.855Z,24.00
2024-02-02T18:07:11.571Z,25.25
2024-02-02T18:09:41.833Z,24.00
2024-02-02T18:12:13.485Z,23.67
2024-02-02T18:14:42.118Z,23.00
2024-02-02T18:17:15.431Z,24.00
2024-02-02T18:19:44.354Z,22.50
2024-02-02T18:22:12.612Z,21.50
2024-02-02T18:24:41.276Z,25.67
2024-02-02T18:27:09.807Z,22.67
2024-02-02T18:29:37.875Z,21.25
2024-02-02T18:32:07.979Z,20.50
2024-02-02T18:34:39.410Z,22.67
2024-02-02T18:37:09.084Z,23.67
2024-02-02T18:39:37.522Z,23.25
2024-02-02T18:42:08.340Z,19.67
2024-02-02T18:44:36.704Z,23.25
2024-02-02T18:47:05.456Z,22.25
2024-02-02T18:49:33.992Z,23.75
2024-02-02T18:52:02.263Z,23.25
2024-02-02T18:54:30.359Z,21.25
2024-02-02T18:57:01.830Z,22.25
2024-02-02T18:59:30.048Z,24.00
2024-02-02T19:01:58.609Z,21.25
2024-02-02T19:04:26.814Z,23.00
2024-02-02T19:06:55.424Z,21.75
2024-02-02T19:09:24.361Z,23.33
2024-02-02T19:11:52.918Z,19.75
2024-02-02T19:14:22.979Z,18.50
2024-02-02T19:16:51.440Z,23.25
2024-02-02T19:19:22.782Z,21.75
2024-02-02T19:21:52.604Z,20.67
2024-02-02T19:24:20.960Z,21.25
2024-02-02T19:26:52.393Z,21.67
2024-02-02T19:29:22.064Z,20.67
2024-02-02T19:31:50.106Z,22.75
2024-02-02T19:34:20.392Z,18.33
2024-02-02T19:36:48.806Z,22.00
2024-02-02T19:39:17.237Z,19.50
2024-02-02T19:41:45.536Z,21.00
2024-02-02T19:44:14.119Z,18.67
2024-02-02T19:46:42.666Z,20.33
2024-02-02T19:49:11.903Z,19.00
2024-02-02T19:51:40.519Z,22.75
2024-02-02T19:54:08.983Z,19.50
2024-02-02T19:56:37.494Z,19.00
2024-02-02T19:59:06.036Z,19.00
2024-02-02T20:01:35.562Z,22.75
2024-02-02T20:04:04.062Z,18.25
2024-02-02T20:06:32.667Z,19.67
2024-02-02T20:09:01.010Z,19.00
2024-02-02T20:11:30.688Z,19.25
2024-02-02T20:13:59.084Z,18.50
2024-02-02T20:16:27.470Z,21.25
2024-02-02T20:18:56.015Z,20.00
2024-02-02T20:21:27.526Z,19.25
2024-02-02T20:23:56.697Z,20.50
2024-02-02T20:26:25.055Z,20.00
2024-02-02T20:28:54.174Z,19.67
2024-02-02T20:31:22.556Z,16.33
2024-02-02T20:33:56.697Z,22.00
2024-02-02T20:36:28.681Z,21.00
2024-02-02T20:38:57.194Z,20.75
2024-02-02T20:41:28.352Z,20.75
2024-02-02T20:43:58.576Z,20.25
2024-02-02T20:46:27.524Z,22.25
2024-02-02T20:48:55.928Z,20.25
2024-02-02T20:51:24.325Z,17.33
2024-02-02T20:53:52.786Z,18.50
2024-02-02T20:56:21.342Z,20.75
2024-02-02T20:58:49.445Z,20.33
2024-02-02T21:01:17.964Z,21.50
2024-02-02T21:03:46.269Z,18.67
2024-02-02T21:06:14.678Z,20.75
2024-02-02T21:08:44.587Z,19.00
2024-02-02T21:11:12.833Z,19.00
2024-02-02T21:13:41.298Z,19.25
2024-02-02T21:16:09.713Z,20.67
2024-02-02T21:18:38.478Z,19.00
2024-02-02T21:21:07.615Z,18.67
2024-02-02T21:23:36.066Z,20.00
2024-02-02T21:26:04.853Z,17.00
2024-02-02T21:28:33.048Z,20.00
2024-02-02T21:31:01.690Z,17.33
2024-02-02T21:33:30.397Z,20.00
2024-02-02T21:36:03.628Z,20.33
2024-02-02T21:38:32.483Z,19.75
2024-02-02T21:41:03.075Z,17.67
2024-02-02T21:43:31.304Z,19.25
2024-02-02T21:45:59.724Z,19.50
2024-02-02T21:48:28.016Z,17.25
2024-02-02T21:50:56.357Z,17.67
2024-02-02T21:53:24.624Z,19.33
2024-02-02T21:55:53.578Z,19.67
2024-02-02T21:58:22.160Z,20.25
2024-02-02T22:00:50.340Z,21.25
2024-02-02T22:03:18.765Z,18.50
2024-02-02T22:05:47.250Z,18.67
2024-02-02T22:08:15.894Z,17.67
2024-02-02T22:10:43.952Z,20.25
2024-02-02T22:13:12.454Z,18.50
2024-02-02T22:15:41.008Z,20.25
2024-02-02T22:18:11.418Z,18.50
2024-02-02T22:20:40.551Z,17.00
2024-02-02T22:23:08.620Z,21.00
2024-02-02T22:25:36.909Z,17.50
2024-02-02T22:30:35.321Z,17.00
2024-02-02T22:33:03.990Z,19.25
2024-02-02T22:35:32.565Z,18.50
2024-02-02T22:38:00.849Z,17.50
2024-02-02T22:40:29.280Z,15.33
2024-02-02T22:42:57.463Z,16.75
2024-02-02T22:45:26.002Z,19.00
2024-02-02T22:47:54.503Z,21.75
2024-02-02T22:50:22.960Z,18.67
2024-02-02T22:52:51.387Z,17.00
2024-02-02T22:55:20.279Z,20.33
2024-02-02T22:57:48.640Z,19.25
2024-02-02T23:00:20.884Z,16.00
2024-02-02T23:02:49.320Z,19.00
2024-02-02T23:05:17.805Z,20.00
2024-02-02T23:07:46.049Z,18.00
2024-02-02T23:10:14.433Z,17.50
2024-02-02T23:12:42.617Z,19.00
2024-02-02T23:15:11.465Z,21.00
2024-02-02T23:17:39.843Z,17.00
2024-02-02T23:20:09.925Z,17.25
2024-02-02T23:22:38.795Z,16.25
2024-02-02T23:25:07.879Z,18.00
2024-02-02T23:27:37.929Z,17.50
2024-02-02T23:30:07.778Z,16.00
2024-02-02T23:32:36.552Z,17.50
2024-02-02T23:35:05.630Z,18.75
2024-02-02T23:37:34.788Z,15.00
2024-02-02T23:40:04.741Z,16.25
2024-02-02T23:42:33.148Z,19.00
2024-02-02T23:45:01.565Z,17.00
2024-02-02T23:47:30.033Z,17.75
2024-02-02T23:49:58.506Z,17.50
2024-02-02T23:52:26.935Z,18.75
2024-02-02T23:54:55.664Z,18.67
2024-02-02T23:57:25.887Z,19.25
2024-02-02T23:59:54.418Z,16.25
